sensor_id;sensor_type;location;lat;lon;timestamp;pressure;altitude;pressure_sealevel;temperature;humidity
37764;BME280;23602;51.084;7.090;2023-04-07T00:00:09;100224.09;;;6.73;100.00
37764;BME280;23602;51.084;7.090;2023-04-07T00:02:36;100212.84;;;6.78;100.00
37764;BME280;23602;51.084;7.090;2023-04-07T00:05:02;100222.72;;;6.77;100.00
37764;BME280;23602;51.084;7.090;2023-04-07T00:07:28;100212.66;;;6.79;100.00
37764;BME280;23602;51.084;7.090;2023-04-07T00:09:55;100212.50;;;6.81;100.00
37764;BME280;23602;51.084;7.090;2023-04-07T00:12:21;100214.50;;;6.79;100.00
37764;BME280;23602;51.084;7.090;2023-04-07T00:14:46;100211.03;;;6.78;100.00
37764;BME280;23602;51.084;7.090;2023-04-07T00:17:12;100206.31;;;6.80;100.00
37764;BME280;23602;51.084;7.090;2023-04-07T00:19:37;100210.63;;;6.81;100.00
37764;BME280;23602;51.084;7.090;2023-04-07T00:22:03;100213.31;;;6.81;100.00
37764;BME280;23602;51.084;7.090;2023-04-07T00:24:29;100217.84;;;6.81;100.00
37764;BME280;23602;51.084;7.090;2023-04-07T00:26:57;100215.16;;;6.81;100.00
37764;BME280;23602;51.084;7.090;2023-04-07T00:29:22;100209.00;;;6.80;100.00
37764;BME280;23602;51.084;7.090;2023-04-07T00:31:48;100211.66;;;6.80;100.00
37764;BME280;23602;51.084;7.090;2023-04-07T00:34:13;100214.34;;;6.80;100.00
37764;BME280;23602;51.084;7.090;2023-04-07T00:36:39;100206.97;;;6.82;100.00
37764;BME280;23602;51.084;7.090;2023-04-07T00:39:04;100205.75;;;6.85;100.00
37764;BME280;23602;51.084;7.090;2023-04-07T00:41:30;100207.44;;;6.86;100.00
37764;BME280;23602;51.084;7.090;2023-04-07T00:43:57;100207.25;;;6.87;100.00
37764;BME280;23602;51.084;7.090;2023-04-07T00:46:23;100208.06;;;6.88;100.00
37764;BME280;23602;51.084;7.090;2023-04-07T00:48:48;100185.88;;;6.87;100.00
37764;BME280;23602;51.084;7.090;2023-04-07T00:51:13;100187.53;;;6.88;100.00
37764;BME280;23602;51.084;7.090;2023-04-07T00:53:39;100189.00;;;6.91;100.00
37764;BME280;23602;51.084;7.090;2023-04-07T00:56:05;100174.81;;;6.90;100.00
37764;BME280;23602;51.084;7.090;2023-04-07T00:58:30;100177.69;;;6.89;100.00
37764;BME280;23602;51.084;7.090;2023-04-07T01:01:11;100177.03;;;6.87;100.00
37764;BME280;23602;51.084;7.090;2023-04-07T01:04:21;100177.22;;;6.85;100.00
37764;BME280;23602;51.084;7.090;2023-04-07T01:06:27;100170.03;;;6.86;100.00
37764;BME280;23602;51.084;7.090;2023-04-07T01:09:04;100175.56;;;6.84;100.00
37764;BME280;23602;51.084;7.090;2023-04-07T01:11:31;100174.34;;;6.87;100.00
37764;BME280;23602;51.084;7.090;2023-04-07T01:14:01;100171.50;;;6.88;100.00
37764;BME280;23602;51.084;7.090;2023-04-07T01:16:30;100178.22;;;6.84;100.00
37764;BME280;23602;51.084;7.090;2023-04-07T01:19:42;100179.53;;;6.88;100.00
37764;BME280;23602;51.084;7.090;2023-04-07T01:21:42;100177.50;;;6.90;100.00
37764;BME280;23602;51.084;7.090;2023-04-07T01:26:41;100167.44;;;6.92;100.00
37764;BME280;23602;51.084;7.090;2023-04-07T01:31:53;100173.34;;;6.88;100.00
37764;BME280;23602;51.084;7.090;2023-04-07T01:34:19;100178.50;;;6.89;100.00
37764;BME280;23602;51.084;7.090;2023-04-07T01:36:46;100185.31;;;6.92;100.00
37764;BME280;23602;51.084;7.090;2023-04-07T01:39:13;100176.09;;;6.94;100.00
37764;BME280;23602;51.084;7.090;2023-04-07T01:41:39;100179.78;;;6.93;100.00
37764;BME280;23602;51.084;7.090;2023-04-07T01:44:05;100179.44;;;6.96;100.00
37764;BME280;23602;51.084;7.090;2023-04-07T01:46:31;100178.59;;;6.96;100.00
37764;BME280;23602;51.084;7.090;2023-04-07T01:48:57;100170.38;;;6.97;100.00
37764;BME280;23602;51.084;7.090;2023-04-07T01:51:23;100172.88;;;6.99;100.00
37764;BME280;23602;51.084;7.090;2023-04-07T01:53:50;100172.06;;;6.98;100.00
37764;BME280;23602;51.084;7.090;2023-04-07T01:56:16;100162.00;;;7.00;100.00
37764;BME280;23602;51.084;7.090;2023-04-07T01:58:41;100158.34;;;7.02;100.00
37764;BME280;23602;51.084;7.090;2023-04-07T02:01:07;100157.28;;;7.03;100.00
37764;BME280;23602;51.084;7.090;2023-04-07T02:03:43;100144.78;;;7.03;100.00
37764;BME280;23602;51.084;7.090;2023-04-07T02:06:11;100149.47;;;7.01;100.00
37764;BME280;23602;51.084;7.090;2023-04-07T02:08:41;100136.75;;;7.03;100.00
37764;BME280;23602;51.084;7.090;2023-04-07T02:11:08;100136.75;;;7.03;100.00
37764;BME280;23602;51.084;7.090;2023-04-07T02:13:40;100137.59;;;7.04;100.00
37764;BME280;23602;51.084;7.090;2023-04-07T02:16:06;100131.06;;;7.06;100.00
37764;BME280;23602;51.084;7.090;2023-04-07T02:18:32;100125.50;;;7.08;100.00
37764;BME280;23602;51.084;7.090;2023-04-07T02:20:58;100122.00;;;7.07;100.00
37764;BME280;23602;51.084;7.090;2023-04-07T02:23:25;100125.50;;;7.08;100.00
37764;BME280;23602;51.084;7.090;2023-04-07T02:25:50;100116.47;;;7.09;100.00
37764;BME280;23602;51.084;7.090;2023-04-07T02:28:16;100111.97;;;7.09;100.00
37764;BME280;23602;51.084;7.090;2023-04-07T02:30:41;100111.31;;;7.07;100.00
37764;BME280;23602;51.084;7.090;2023-04-07T02:33:06;100103.97;;;7.09;100.00
37764;BME280;23602;51.084;7.090;2023-04-07T02:35:32;100106.44;;;7.11;100.00
37764;BME280;23602;51.084;7.090;2023-04-07T02:37:57;100103.13;;;7.09;100.00
37764;BME280;23602;51.084;7.090;2023-04-07T02:40:22;100099.41;;;7.10;100.00
37764;BME280;23602;51.084;7.090;2023-04-07T02:42:48;100102.09;;;7.10;100.00
37764;BME280;23602;51.084;7.090;2023-04-07T02:45:13;100100.88;;;7.12;100.00
37764;BME280;23602;51.084;7.090;2023-04-07T02:47:38;100106.06;;;7.14;100.00
37764;BME280;23602;51.084;7.090;2023-04-07T02:50:04;100112.03;;;7.16;100.00
37764;BME280;23602;51.084;7.090;2023-04-07T02:52:30;100100.09;;;7.12;100.00
37764;BME280;23602;51.084;7.090;2023-04-07T02:54:56;100102.75;;;7.12;100.00
37764;BME280;23602;51.084;7.090;2023-04-07T02:57:23;100116.75;;;7.14;100.00
37764;BME280;23602;51.084;7.090;2023-04-07T02:59:48;100109.38;;;7.16;100.00
37764;BME280;23602;51.084;7.090;2023-04-07T03:02:14;100114.06;;;7.14;100.00
37764;BME280;23602;51.084;7.090;2023-04-07T03:04:39;100106.06;;;7.14;100.00
37764;BME280;23602;51.084;7.090;2023-04-07T03:07:05;100114.34;;;7.19;100.00
37764;BME280;23602;51.084;7.090;2023-04-07T03:09:30;100110.84;;;7.18;100.00
37764;BME280;23602;51.084;7.090;2023-04-07T03:11:58;100113.50;;;7.18;100.00
37764;BME280;23602;51.084;7.090;2023-04-07T03:14:24;100112.88;;;7.16;100.00
37764;BME280;23602;51.084;7.090;2023-04-07T03:16:49;100114.72;;;7.16;100.00
37764;BME280;23602;51.084;7.090;2023-04-07T03:19:15;100112.88;;;7.16;100.00
37764;BME280;23602;51.084;7.090;2023-04-07T03:21:40;100110.00;;;7.18;100.00
37764;BME280;23602;51.084;7.090;2023-04-07T03:24:06;100114.97;;;7.21;100.00
37764;BME280;23602;51.084;7.090;2023-04-07T03:26:31;100118.00;;;7.18;100.00
37764;BME280;23602;51.084;7.090;2023-04-07T03:28:57;100114.34;;;7.19;100.00
37764;BME280;23602;51.084;7.090;2023-04-07T03:31:22;100122.16;;;7.20;100.00
37764;BME280;23602;51.084;7.090;2023-04-07T03:33:48;100120.31;;;7.21;100.00
37764;BME280;23602;51.084;7.090;2023-04-07T03:36:13;100120.94;;;7.23;100.00
37764;BME280;23602;51.084;7.090;2023-04-07T03:38:38;100119.13;;;7.23;100.00
37764;BME280;23602;51.084;7.090;2023-04-07T03:41:04;100116.25;;;7.25;100.00
37764;BME280;23602;51.084;7.090;2023-04-07T03:43:29;100121.59;;;7.25;100.00
37764;BME280;23602;51.084;7.090;2023-04-07T03:45:55;100125.56;;;7.29;100.00
37764;BME280;23602;51.084;7.090;2023-04-07T03:48:20;100118.53;;;7.28;100.00
37764;BME280;23602;51.084;7.090;2023-04-07T03:50:45;100129.50;;;7.33;100.00
37764;BME280;23602;51.084;7.090;2023-04-07T03:53:12;100135.47;;;7.35;100.00
37764;BME280;23602;51.084;7.090;2023-04-07T03:55:41;100132.00;;;7.34;100.00
37764;BME280;23602;51.084;7.090;2023-04-07T03:58:06;100149.66;;;7.35;100.00
37764;BME280;23602;51.084;7.090;2023-04-07T04:00:32;100143.13;;;7.38;100.00
37764;BME280;23602;51.084;7.090;2023-04-07T04:02:58;100149.94;;;7.40;100.00
37764;BME280;23602;51.084;7.090;2023-04-07T04:05:23;100157.38;;;7.45;100.00
37764;BME280;23602;51.084;7.090;2023-04-07T04:07:48;100151.59;;;7.41;100.00
37764;BME280;23602;51.084;7.090;2023-04-07T04:10:15;100165.81;;;7.42;100.00
37764;BME280;23602;51.084;7.090;2023-04-07T04:12:43;100169.28;;;7.42;100.00
37764;BME280;23602;51.084;7.090;2023-04-07T04:15:08;100170.56;;;7.46;100.00
37764;BME280;23602;51.084;7.090;2023-04-07T04:17:34;100171.16;;;7.42;100.00
37764;BME280;23602;51.084;7.090;2023-04-07T04:19:59;100173.81;;;7.42;100.00
37764;BME280;23602;51.084;7.090;2023-04-07T04:22:25;100181.84;;;7.42;100.00
37764;BME280;23602;51.084;7.090;2023-04-07T04:24:50;100186.00;;;7.44;100.00
37764;BME280;23602;51.084;7.090;2023-04-07T04:27:15;100192.13;;;7.45;100.00
37764;BME280;23602;51.084;7.090;2023-04-07T04:29:41;100196.47;;;7.46;100.00
37764;BME280;23602;51.084;7.090;2023-04-07T04:32:06;100196.84;;;7.43;100.00
37764;BME280;23602;51.084;7.090;2023-04-07T04:34:32;100200.16;;;7.45;100.00
37764;BME280;23602;51.084;7.090;2023-04-07T04:36:58;100199.34;;;7.44;100.00
37764;BME280;23602;51.084;7.090;2023-04-07T04:39:26;100202.03;;;7.44;100.00
37764;BME280;23602;51.084;7.090;2023-04-07T04:41:55;100206.53;;;7.44;100.00
37764;BME280;23602;51.084;7.090;2023-04-07T04:44:20;100207.19;;;7.46;100.00
37764;BME280;23602;51.084;7.090;2023-04-07T04:46:47;100209.84;;;7.46;100.00
37764;BME280;23602;51.084;7.090;2023-04-07T04:49:12;100208.84;;;7.47;100.00
37764;BME280;23602;51.084;7.090;2023-04-07T04:51:39;100212.16;;;7.49;100.00
37764;BME280;23602;51.084;7.090;2023-04-07T04:54:05;100203.88;;;7.44;100.00
37764;BME280;23602;51.084;7.090;2023-04-07T04:56:30;100211.88;;;7.44;100.00
37764;BME280;23602;51.084;7.090;2023-04-07T04:58:56;100218.25;;;7.43;100.00
37764;BME280;23602;51.084;7.090;2023-04-07T05:01:21;100210.06;;;7.44;100.00
37764;BME280;23602;51.084;7.090;2023-04-07T05:03:46;100221.94;;;7.42;100.00
37764;BME280;23602;51.084;7.090;2023-04-07T05:06:12;100226.63;;;7.40;100.00
37764;BME280;23602;51.084;7.090;2023-04-07T05:08:37;100225.25;;;7.44;100.00
37764;BME280;23602;51.084;7.090;2023-04-07T05:11:03;100225.25;;;7.44;100.00
37764;BME280;23602;51.084;7.090;2023-04-07T05:13:28;100227.94;;;7.44;100.00
37764;BME280;23602;51.084;7.090;2023-04-07T05:15:55;100223.41;;;7.44;100.00
37764;BME280;23602;51.084;7.090;2023-04-07T05:18:20;100228.56;;;7.46;100.00
37764;BME280;23602;51.084;7.090;2023-04-07T05:20:47;100228.56;;;7.46;100.00
37764;BME280;23602;51.084;7.090;2023-04-07T05:23:12;100228.50;;;7.39;100.00
37764;BME280;23602;51.084;7.090;2023-04-07T05:25:38;100229.78;;;7.43;100.00
37764;BME280;23602;51.084;7.090;2023-04-07T05:28:03;100233.44;;;7.42;100.00
37764;BME280;23602;51.084;7.090;2023-04-07T05:30:28;100235.47;;;7.40;100.00
37764;BME280;23602;51.084;7.090;2023-04-07T05:32:54;100234.28;;;7.43;100.00
37764;BME280;23602;51.084;7.090;2023-04-07T05:35:19;100234.28;;;7.43;100.00
37764;BME280;23602;51.084;7.090;2023-04-07T05:37:45;100230.97;;;7.41;100.00
37764;BME280;23602;51.084;7.090;2023-04-07T05:40:10;100233.84;;;7.39;100.00
37764;BME280;23602;51.084;7.090;2023-04-07T05:42:36;100238.34;;;7.39;100.00
37764;BME280;23602;51.084;7.090;2023-04-07T05:45:01;100243.34;;;7.42;100.00
37764;BME280;23602;51.084;7.090;2023-04-07T05:47:29;100241.28;;;7.44;100.00
37764;BME280;23602;51.084;7.090;2023-04-07T05:49:54;100246.66;;;7.44;100.00
37764;BME280;23602;51.084;7.090;2023-04-07T05:52:20;100245.81;;;7.43;100.00
37764;BME280;23602;51.084;7.090;2023-04-07T05:54:45;100239.63;;;7.43;100.00
37764;BME280;23602;51.084;7.090;2023-04-07T05:57:12;100241.88;;;7.39;100.00
37764;BME280;23602;51.084;7.090;2023-04-07T05:59:37;100245.34;;;7.40;100.00
37764;BME280;23602;51.084;7.090;2023-04-07T06:02:02;100245.34;;;7.40;100.00
37764;BME280;23602;51.084;7.090;2023-04-07T06:04:28;100251.16;;;7.43;100.00
37764;BME280;23602;51.084;7.090;2023-04-07T06:06:53;100246.66;;;7.44;100.00
37764;BME280;23602;51.084;7.090;2023-04-07T06:09:22;100255.31;;;7.46;100.00
37764;BME280;23602;51.084;7.090;2023-04-07T06:11:47;100249.78;;;7.47;100.00
37764;BME280;23602;51.084;7.090;2023-04-07T06:14:13;100260.75;;;7.52;100.00
37764;BME280;23602;51.084;7.090;2023-04-07T06:16:38;100259.06;;;7.51;100.00
37764;BME280;23602;51.084;7.090;2023-04-07T06:19:04;100259.28;;;7.50;100.00
37764;BME280;23602;51.084;7.090;2023-04-07T06:21:33;100253.72;;;7.51;100.00
37764;BME280;23602;51.084;7.090;2023-04-07T06:23:58;100256.19;;;7.53;100.00
37764;BME280;23602;51.084;7.090;2023-04-07T06:26:23;100258.06;;;7.52;100.00
37764;BME280;23602;51.084;7.090;2023-04-07T06:28:49;100255.84;;;7.56;100.00
37764;BME280;23602;51.084;7.090;2023-04-07T06:31:15;100248.44;;;7.58;100.00
37764;BME280;23602;51.084;7.090;2023-04-07T06:33:43;100249.84;;;7.54;100.00
37764;BME280;23602;51.084;7.090;2023-04-07T06:36:09;100251.25;;;7.50;100.00
37764;BME280;23602;51.084;7.090;2023-04-07T06:38:34;100244.44;;;7.47;100.00
37764;BME280;23602;51.084;7.090;2023-04-07T06:40:59;100251.69;;;7.53;100.00
37764;BME280;23602;51.084;7.090;2023-04-07T06:43:25;100249.59;;;7.49;100.00
37764;BME280;23602;51.084;7.090;2023-04-07T06:45:50;100252.53;;;7.54;100.00
37764;BME280;23602;51.084;7.090;2023-04-07T06:48:15;100254.19;;;7.55;100.00
37764;BME280;23602;51.084;7.090;2023-04-07T06:50:44;100254.56;;;7.52;100.00
37764;BME280;23602;51.084;7.090;2023-04-07T06:53:09;100255.84;;;7.56;100.00
37764;BME280;23602;51.084;7.090;2023-04-07T06:55:35;100259.53;;;7.55;100.00
37764;BME280;23602;51.084;7.090;2023-04-07T06:58:00;100265.31;;;7.58;100.00
37764;BME280;23602;51.084;7.090;2023-04-07T07:00:26;100259.16;;;7.58;100.00
37764;BME280;23602;51.084;7.090;2023-04-07T07:02:54;100264.50;;;7.58;100.00
37764;BME280;23602;51.084;7.090;2023-04-07T07:05:19;100267.16;;;7.58;100.00
37764;BME280;23602;51.084;7.090;2023-04-07T07:07:45;100269.03;;;7.57;100.00
37764;BME280;23602;51.084;7.090;2023-04-07T07:10:11;100269.03;;;7.57;100.00
37764;BME280;23602;51.084;7.090;2023-04-07T07:12:38;100265.78;;;7.62;100.00
37764;BME280;23602;51.084;7.090;2023-04-07T07:15:04;100278.53;;;7.60;100.00
37764;BME280;23602;51.084;7.090;2023-04-07T07:17:29;100274.66;;;7.62;100.00
37764;BME280;23602;51.084;7.090;2023-04-07T07:19:55;100271.16;;;7.62;100.00
37764;BME280;23602;51.084;7.090;2023-04-07T07:22:20;100268.09;;;7.65;100.00
37764;BME280;23602;51.084;7.090;2023-04-07T07:24:46;100270.56;;;7.67;100.00
37764;BME280;23602;51.084;7.090;2023-04-07T07:27:11;100277.59;;;7.68;100.00
37764;BME280;23602;51.084;7.090;2023-04-07T07:29:36;100270.38;;;7.68;100.00
37764;BME280;23602;51.084;7.090;2023-04-07T07:32:02;100273.50;;;7.72;100.00
37764;BME280;23602;51.084;7.090;2023-04-07T07:34:28;100283.66;;;7.76;100.00
37764;BME280;23602;51.084;7.090;2023-04-07T07:36:53;100279.97;;;7.77;100.00
37764;BME280;23602;51.084;7.090;2023-04-07T07:39:18;100272.56;;;7.79;100.00
37764;BME280;23602;51.084;7.090;2023-04-07T07:41:44;100280.41;;;7.81;100.00
37764;BME280;23602;51.084;7.090;2023-04-07T07:44:10;100279.13;;;7.77;100.00
37764;BME280;23602;51.084;7.090;2023-04-07T07:46:36;100280.59;;;7.79;100.00
37764;BME280;23602;51.084;7.090;2023-04-07T07:49:01;100285.13;;;7.79;100.00
37764;BME280;23602;51.084;7.090;2023-04-07T07:51:29;100289.91;;;7.83;100.00
37764;BME280;23602;51.084;7.090;2023-04-07T07:53:54;100290.34;;;7.87;100.00
37764;BME280;23602;51.084;7.090;2023-04-07T07:56:20;100278.00;;;7.86;100.00
37764;BME280;23602;51.084;7.090;2023-04-07T07:58:46;100291.75;;;7.83;100.00
37764;BME280;23602;51.084;7.090;2023-04-07T08:01:11;100291.19;;;7.87;100.00
37764;BME280;23602;51.084;7.090;2023-04-07T08:03:37;100298.84;;;7.90;100.00
37764;BME280;23602;51.084;7.090;2023-04-07T08:06:02;100285.06;;;7.93;100.00
37764;BME280;23602;51.084;7.090;2023-04-07T08:08:28;100290.63;;;7.92;100.00
37764;BME280;23602;51.084;7.090;2023-04-07T08:10:53;100292.09;;;7.94;100.00
37764;BME280;23602;51.084;7.090;2023-04-07T08:13:18;100306.47;;;7.93;100.00
37764;BME280;23602;51.084;7.090;2023-04-07T08:15:44;100304.75;;;7.86;100.00
37764;BME280;23602;51.084;7.090;2023-04-07T08:18:09;100302.78;;;7.94;100.00
37764;BME280;23602;51.084;7.090;2023-04-07T08:20:35;100304.72;;;8.00;100.00
37764;BME280;23602;51.084;7.090;2023-04-07T08:23:00;100305.00;;;8.05;100.00
37764;BME280;23602;51.084;7.090;2023-04-07T08:25:26;100305.16;;;8.04;100.00
37764;BME280;23602;51.084;7.090;2023-04-07T08:27:52;100301.94;;;8.08;100.00
37764;BME280;23602;51.084;7.090;2023-04-07T08:30:20;100300.91;;;8.09;100.00
37764;BME280;23602;51.084;7.090;2023-04-07T08:32:46;100309.19;;;8.14;100.00
37764;BME280;23602;51.084;7.090;2023-04-07T08:35:14;100298.84;;;8.11;100.00
37764;BME280;23602;51.084;7.090;2023-04-07T08:37:40;100303.66;;;8.16;100.00
37764;BME280;23602;51.084;7.090;2023-04-07T08:40:07;100310.75;;;8.23;100.00
37764;BME280;23602;51.084;7.090;2023-04-07T08:42:33;100307.69;;;8.26;100.00
37764;BME280;23602;51.084;7.090;2023-04-07T08:45:05;100309.16;;;8.29;100.00
37764;BME280;23602;51.084;7.090;2023-04-07T08:47:31;100307.41;;;8.36;100.00
37764;BME280;23602;51.084;7.090;2023-04-07T08:49:59;100302.84;;;8.37;100.00
37764;BME280;23602;51.084;7.090;2023-04-07T08:52:26;100298.91;;;8.33;100.00
37764;BME280;23602;51.084;7.090;2023-04-07T08:54:56;100304.63;;;8.30;100.00
37764;BME280;23602;51.084;7.090;2023-04-07T08:57:25;100305.28;;;8.32;100.00
37764;BME280;23602;51.084;7.090;2023-04-07T08:59:52;100309.03;;;8.37;100.00
37764;BME280;23602;51.084;7.090;2023-04-07T09:02:18;100303.31;;;8.40;100.00
37764;BME280;23602;51.084;7.090;2023-04-07T09:04:44;100301.00;;;8.37;100.00
37764;BME280;23602;51.084;7.090;2023-04-07T09:07:09;100300.38;;;8.35;100.00
37764;BME280;23602;51.084;7.090;2023-04-07T09:09:35;100306.56;;;8.36;100.00
37764;BME280;23602;51.084;7.090;2023-04-07T09:12:00;100307.78;;;8.33;100.00
37764;BME280;23602;51.084;7.090;2023-04-07T09:14:26;100311.53;;;8.39;100.00
37764;BME280;23602;51.084;7.090;2023-04-07T09:16:51;100308.78;;;8.32;100.00
37764;BME280;23602;51.084;7.090;2023-04-07T09:19:18;100307.78;;;8.33;100.00
37764;BME280;23602;51.084;7.090;2023-04-07T09:24:25;100315.03;;;8.39;100.00
37764;BME280;23602;51.084;7.090;2023-04-07T09:27:13;100311.09;;;8.35;100.00
37764;BME280;23602;51.084;7.090;2023-04-07T09:29:37;100312.31;;;8.33;100.00
37764;BME280;23602;51.084;7.090;2023-04-07T09:32:02;100307.69;;;8.26;100.00
37764;BME280;23602;51.084;7.090;2023-04-07T09:34:31;100326.44;;;8.26;100.00
37764;BME280;23602;51.084;7.090;2023-04-07T09:36:57;100324.41;;;8.29;100.00
37764;BME280;23602;51.084;7.090;2023-04-07T09:39:22;100323.00;;;8.33;100.00
37764;BME280;23602;51.084;7.090;2023-04-07T09:41:48;100330.13;;;8.25;100.00
37764;BME280;23602;51.084;7.090;2023-04-07T09:44:13;100328.75;;;8.30;100.00
37764;BME280;23602;51.084;7.090;2023-04-07T09:46:49;100331.88;;;8.33;100.00
37764;BME280;23602;51.084;7.090;2023-04-07T09:49:15;100332.97;;;8.39;100.00
37764;BME280;23602;51.084;7.090;2023-04-07T09:54:34;100331.88;;;8.33;100.00
37764;BME280;23602;51.084;7.090;2023-04-07T09:57:00;100340.19;;;8.23;100.00
37764;BME280;23602;51.084;7.090;2023-04-07T09:59:26;100341.28;;;8.29;100.00
37764;BME280;23602;51.084;7.090;2023-04-07T10:01:54;100344.22;;;8.34;100.00
37764;BME280;23602;51.084;7.090;2023-04-07T10:04:20;100333.78;;;8.39;100.00
37764;BME280;23602;51.084;7.090;2023-04-07T10:06:46;100327.91;;;8.29;100.00
37764;BME280;23602;51.084;7.090;2023-04-07T10:09:11;100331.63;;;8.28;100.00
37764;BME280;23602;51.084;7.090;2023-04-07T10:11:37;100329.63;;;8.37;100.00
37764;BME280;23602;51.084;7.090;2023-04-07T10:14:03;100334.22;;;8.43;100.00
37764;BME280;23602;51.084;7.090;2023-04-07T10:16:28;100334.03;;;8.44;100.00
37764;BME280;23602;51.084;7.090;2023-04-07T10:18:54;100335.91;;;8.44;100.00
37764;BME280;23602;51.084;7.090;2023-04-07T10:21:20;100336.53;;;8.46;100.00
37764;BME280;23602;51.084;7.090;2023-04-07T10:23:53;100349.97;;;8.52;100.00
37764;BME280;23602;51.084;7.090;2023-04-07T10:26:21;100339.84;;;8.48;100.00
37764;BME280;23602;51.084;7.090;2023-04-07T10:28:50;100337.28;;;8.61;100.00
37764;BME280;23602;51.084;7.090;2023-04-07T10:31:19;100329.50;;;8.66;100.00
37764;BME280;23602;51.084;7.090;2023-04-07T10:36:33;100323.47;;;8.85;100.00
37764;BME280;23602;51.084;7.090;2023-04-07T10:41:38;100325.53;;;8.83;100.00
37764;BME280;23602;51.084;7.090;2023-04-07T10:49:19;100313.06;;;8.69;100.00
37764;BME280;23602;51.084;7.090;2023-04-07T10:52:20;100314.81;;;8.83;100.00
37764;BME280;23602;51.084;7.090;2023-04-07T10:54:40;100302.75;;;8.72;100.00
37764;BME280;23602;51.084;7.090;2023-04-07T10:57:10;100310.50;;;8.82;100.00
37764;BME280;23602;51.084;7.090;2023-04-07T10:59:37;100308.69;;;8.89;100.00
37764;BME280;23602;51.084;7.090;2023-04-07T11:04:45;100313.00;;;8.90;100.00
37764;BME280;23602;51.084;7.090;2023-04-07T11:07:12;100307.09;;;8.95;100.00
37764;BME280;23602;51.084;7.090;2023-04-07T11:09:40;100317.69;;;9.09;100.00
37764;BME280;23602;51.084;7.090;2023-04-07T11:12:06;100303.09;;;9.18;100.00
37764;BME280;23602;51.084;7.090;2023-04-07T11:14:31;100311.81;;;9.27;100.00
37764;BME280;23602;51.084;7.090;2023-04-07T11:17:14;100304.63;;;9.27;100.00
37764;BME280;23602;51.084;7.090;2023-04-07T11:19:53;100296.09;;;9.17;100.00
37764;BME280;23602;51.084;7.090;2023-04-07T11:22:22;100301.84;;;9.14;100.00
37764;BME280;23602;51.084;7.090;2023-04-07T11:24:50;100299.28;;;9.00;100.00
37764;BME280;23602;51.084;7.090;2023-04-07T11:27:23;100294.31;;;8.97;100.00
37764;BME280;23602;51.084;7.090;2023-04-07T11:29:49;100302.19;;;9.05;100.00
37764;BME280;23602;51.084;7.090;2023-04-07T11:32:15;100305.38;;;9.15;100.00
37764;BME280;23602;51.084;7.090;2023-04-07T11:34:43;100309.50;;;9.17;100.00
37764;BME280;23602;51.084;7.090;2023-04-07T11:39:43;100313.41;;;9.15;100.00
37764;BME280;23602;51.084;7.090;2023-04-07T11:42:11;100315.41;;;9.06;100.00
37764;BME280;23602;51.084;7.090;2023-04-07T11:44:45;100328.19;;;9.04;100.00
37764;BME280;23602;51.084;7.090;2023-04-07T11:47:16;100335.03;;;9.13;100.00
37764;BME280;23602;51.084;7.090;2023-04-07T11:49:46;100339.38;;;9.14;100.00
37764;BME280;23602;51.084;7.090;2023-04-07T11:52:14;100346.91;;;9.25;100.00
37764;BME280;23602;51.084;7.090;2023-04-07T11:54:43;100353.50;;;9.29;100.00
37764;BME280;23602;51.084;7.090;2023-04-07T11:57:12;100348.38;;;9.34;100.00
37764;BME280;23602;51.084;7.090;2023-04-07T11:59:40;100337.69;;;9.41;100.00
37764;BME280;23602;51.084;7.090;2023-04-07T12:02:08;100330.94;;;9.51;100.00
37764;BME280;23602;51.084;7.090;2023-04-07T12:04:33;100329.69;;;9.47;100.00
37764;BME280;23602;51.084;7.090;2023-04-07T12:07:07;100320.78;;;9.40;100.00
37764;BME280;23602;51.084;7.090;2023-04-07T12:09:33;100324.25;;;9.34;100.00
37764;BME280;23602;51.084;7.090;2023-04-07T12:12:05;100320.47;;;9.22;100.00
37764;BME280;23602;51.084;7.090;2023-04-07T12:14:34;100329.50;;;9.15;100.00
37764;BME280;23602;51.084;7.090;2023-04-07T12:17:03;100339.00;;;9.17;100.00
37764;BME280;23602;51.084;7.090;2023-04-07T12:19:29;100346.25;;;9.23;100.00
37764;BME280;23602;51.084;7.090;2023-04-07T12:21:56;100341.94;;;9.29;100.00
37764;BME280;23602;51.084;7.090;2023-04-07T12:24:24;100339.50;;;9.34;100.00
37764;BME280;23602;51.084;7.090;2023-04-07T12:26:57;100337.59;;;9.56;100.00
37764;BME280;23602;51.084;7.090;2023-04-07T12:29:22;100330.47;;;9.76;100.00
37764;BME280;23602;51.084;7.090;2023-04-07T12:31:48;100319.78;;;9.89;100.00
37764;BME280;23602;51.084;7.090;2023-04-07T12:34:13;100323.31;;;10.02;100.00
37764;BME280;23602;51.084;7.090;2023-04-07T12:36:39;100316.13;;;10.09;100.00
37764;BME280;23602;51.084;7.090;2023-04-07T12:39:08;100312.44;;;10.17;100.00
37764;BME280;23602;51.084;7.090;2023-04-07T12:41:33;100316.19;;;10.16;100.00
37764;BME280;23602;51.084;7.090;2023-04-07T12:44:09;100289.47;;;10.08;100.00
37764;BME280;23602;51.084;7.090;2023-04-07T12:46:37;100281.63;;;10.06;100.00
37764;BME280;23602;51.084;7.090;2023-04-07T12:49:05;100296.16;;;10.25;100.00
37764;BME280;23602;51.084;7.090;2023-04-07T12:51:30;100292.03;;;10.29;100.00
37764;BME280;23602;51.084;7.090;2023-04-07T12:54:07;100283.97;;;10.16;100.00
37764;BME280;23602;51.084;7.090;2023-04-07T12:56:33;100277.53;;;10.17;100.00
37764;BME280;23602;51.084;7.090;2023-04-07T12:59:06;100283.28;;;10.07;100.00
37764;BME280;23602;51.084;7.090;2023-04-07T13:01:32;100283.63;;;9.85;100.00
37764;BME280;23602;51.084;7.090;2023-04-07T13:03:59;100294.53;;;9.77;100.00
37764;BME280;23602;51.084;7.090;2023-04-07T13:06:38;100309.56;;;9.65;100.00
37764;BME280;23602;51.084;7.090;2023-04-07T13:09:05;100338.75;;;9.46;100.00
37764;BME280;23602;51.084;7.090;2023-04-07T13:11:30;100343.13;;;9.54;100.00
37764;BME280;23602;51.084;7.090;2023-04-07T13:13:56;100363.44;;;9.70;100.00